sensor_id;sensor_type;location;lat;lon;timestamp;pressure;altitude;pressure_sealevel;temperature;humidity
11108;BME280;5607;48.302;14.294;2023-02-19T00:00:26;98842.53;;;10.92;100.00
11108;BME280;5607;48.302;14.294;2023-02-19T00:03:13;98846.81;;;11.02;100.00
11108;BME280;5607;48.302;14.294;2023-02-19T00:06:04;98840.06;;;10.90;100.00
11108;BME280;5607;48.302;14.294;2023-02-19T00:08:51;98843.59;;;10.79;100.00
11108;BME280;5607;48.302;14.294;2023-02-19T00:11:39;98838.91;;;10.73;100.00
11108;BME280;5607;48.302;14.294;2023-02-19T00:14:25;98832.44;;;10.68;100.00
11108;BME280;5607;48.302;14.294;2023-02-19T00:17:12;98833.97;;;10.80;100.00
11108;BME280;5607;48.302;14.294;2023-02-19T00:19:58;98835.22;;;10.76;100.00
11108;BME280;5607;48.302;14.294;2023-02-19T00:22:45;98832.75;;;10.74;100.00
11108;BME280;5607;48.302;14.294;2023-02-19T00:25:35;98824.94;;;10.74;100.00
11108;BME280;5607;48.302;14.294;2023-02-19T00:28:23;98834.41;;;10.75;100.00
11108;BME280;5607;48.302;14.294;2023-02-19T00:34:06;98832.00;;;10.53;100.00
11108;BME280;5607;48.302;14.294;2023-02-19T00:36:54;98835.50;;;10.33;100.00
11108;BME280;5607;48.302;14.294;2023-02-19T00:39:41;98833.19;;;10.18;100.00
11108;BME280;5607;48.302;14.294;2023-02-19T00:42:27;98837.34;;;10.21;100.00
11108;BME280;5607;48.302;14.294;2023-02-19T00:45:14;98824.91;;;10.34;100.00
11108;BME280;5607;48.302;14.294;2023-02-19T00:48:00;98818.78;;;10.45;100.00
11108;BME280;5607;48.302;14.294;2023-02-19T00:50:47;98829.28;;;10.74;100.00
11108;BME280;5607;48.302;14.294;2023-02-19T00:53:33;98814.69;;;10.62;100.00
11108;BME280;5607;48.302;14.294;2023-02-19T00:56:21;98795.09;;;10.37;100.00
11108;BME280;5607;48.302;14.294;2023-02-19T00:59:08;98817.38;;;10.41;100.00
11108;BME280;5607;48.302;14.294;2023-02-19T01:01:57;98814.34;;;10.36;100.00
11108;BME280;5607;48.302;14.294;2023-02-19T01:04:43;98808.06;;;10.38;100.00
11108;BME280;5607;48.302;14.294;2023-02-19T01:07:30;98811.25;;;10.21;100.00
11108;BME280;5607;48.302;14.294;2023-02-19T01:10:16;98812.06;;;10.21;100.00
11108;BME280;5607;48.302;14.294;2023-02-19T01:13:03;98805.41;;;10.08;100.00
11108;BME280;5607;48.302;14.294;2023-02-19T01:15:50;98807.75;;;10.11;100.00
11108;BME280;5607;48.302;14.294;2023-02-19T01:18:36;98799.41;;;10.17;100.00
11108;BME280;5607;48.302;14.294;2023-02-19T01:21:24;98796.66;;;10.18;100.00
11108;BME280;5607;48.302;14.294;2023-02-19T01:24:11;98793.97;;;9.99;100.00
11108;BME280;5607;48.302;14.294;2023-02-19T01:26:58;98782.97;;;9.95;100.00
11108;BME280;5607;48.302;14.294;2023-02-19T01:29:44;98787.41;;;10.05;100.00
11108;BME280;5607;48.302;14.294;2023-02-19T01:32:31;98750.94;;;9.84;100.00
11108;BME280;5607;48.302;14.294;2023-02-19T01:35:17;98774.34;;;10.05;100.00
11108;BME280;5607;48.302;14.294;2023-02-19T01:38:04;98767.78;;;10.10;100.00
11108;BME280;5607;48.302;14.294;2023-02-19T01:40:57;98758.81;;;10.24;100.00
11108;BME280;5607;48.302;14.294;2023-02-19T01:46:53;98746.28;;;9.87;100.00
11108;BME280;5607;48.302;14.294;2023-02-19T01:49:53;98754.50;;;9.83;100.00
11108;BME280;5607;48.302;14.294;2023-02-19T01:52:42;98741.19;;;9.86;100.00
11108;BME280;5607;48.302;14.294;2023-02-19T01:55:28;98751.69;;;9.75;100.00
11108;BME280;5607;48.302;14.294;2023-02-19T01:58:15;98730.16;;;9.73;100.00
11108;BME280;5607;48.302;14.294;2023-02-19T02:01:05;98744.16;;;9.71;100.00
11108;BME280;5607;48.302;14.294;2023-02-19T02:03:52;98740.22;;;9.87;100.00
11108;BME280;5607;48.302;14.294;2023-02-19T02:06:49;98729.84;;;9.96;100.00
11108;BME280;5607;48.302;14.294;2023-02-19T02:09:36;98740.28;;;9.96;100.00
11108;BME280;5607;48.302;14.294;2023-02-19T02:12:41;98715.97;;;9.96;100.00
11108;BME280;5607;48.302;14.294;2023-02-19T02:15:36;98720.00;;;10.00;100.00
11108;BME280;5607;48.302;14.294;2023-02-19T02:18:36;98719.03;;;10.11;100.00
11108;BME280;5607;48.302;14.294;2023-02-19T02:32:10;98708.31;;;10.04;100.00
11108;BME280;5607;48.302;14.294;2023-02-19T02:35:07;98705.44;;;10.07;100.00
11108;BME280;5607;48.302;14.294;2023-02-19T02:38:00;98695.47;;;10.22;100.00
11108;BME280;5607;48.302;14.294;2023-02-19T02:40:47;98689.38;;;10.12;100.00
11108;BME280;5607;48.302;14.294;2023-02-19T02:43:34;98687.06;;;10.18;100.00
11108;BME280;5607;48.302;14.294;2023-02-19T02:46:27;98682.19;;;10.25;100.00
11108;BME280;5607;48.302;14.294;2023-02-19T02:49:19;98692.03;;;10.21;100.00
11108;BME280;5607;48.302;14.294;2023-02-19T02:52:07;98676.50;;;10.20;100.00
11108;BME280;5607;48.302;14.294;2023-02-19T02:55:13;98677.94;;;10.34;100.00
11108;BME280;5607;48.302;14.294;2023-02-19T02:58:01;98676.97;;;10.25;100.00
11108;BME280;5607;48.302;14.294;2023-02-19T03:01:01;98671.13;;;10.12;100.00
11108;BME280;5607;48.302;14.294;2023-02-19T03:04:14;98676.13;;;10.24;100.00
11108;BME280;5607;48.302;14.294;2023-02-19T03:07:07;98672.66;;;10.14;100.00
11108;BME280;5607;48.302;14.294;2023-02-19T03:09:55;98678.53;;;10.16;100.00
11108;BME280;5607;48.302;14.294;2023-02-19T03:12:44;98672.78;;;10.13;100.00
11108;BME280;5607;48.302;14.294;2023-02-19T03:16:00;98675.66;;;10.10;100.00
11108;BME280;5607;48.302;14.294;2023-02-19T03:19:09;98665.06;;;10.11;100.00
11108;BME280;5607;48.302;14.294;2023-02-19T03:22:14;98671.63;;;9.96;100.00
11108;BME280;5607;48.302;14.294;2023-02-19T03:25:10;98662.16;;;9.95;100.00
11108;BME280;5607;48.302;14.294;2023-02-19T03:28:18;98655.41;;;9.92;100.00
11108;BME280;5607;48.302;14.294;2023-02-19T03:31:29;98663.66;;;9.88;100.00
11108;BME280;5607;48.302;14.294;2023-02-19T03:34:25;98663.94;;;9.94;100.00
11108;BME280;5607;48.302;14.294;2023-02-19T03:37:17;98658.75;;;9.94;100.00
11108;BME280;5607;48.302;14.294;2023-02-19T03:40:07;98645.69;;;10.04;100.00
11108;BME280;5607;48.302;14.294;2023-02-19T03:43:20;98637.19;;;10.02;100.00
11108;BME280;5607;48.302;14.294;2023-02-19T03:46:15;98631.84;;;9.94;100.00
11108;BME280;5607;48.302;14.294;2023-02-19T03:52:55;98638.81;;;9.93;100.00
11108;BME280;5607;48.302;14.294;2023-02-19T03:55:58;98653.22;;;9.88;100.00
11108;BME280;5607;48.302;14.294;2023-02-19T03:58:55;98648.59;;;10.01;100.00
11108;BME280;5607;48.302;14.294;2023-02-19T04:01:54;98648.13;;;9.86;100.00
11108;BME280;5607;48.302;14.294;2023-02-19T04:04:44;98650.34;;;9.91;100.00
11108;BME280;5607;48.302;14.294;2023-02-19T04:07:35;98650.50;;;9.99;100.00
11108;BME280;5607;48.302;14.294;2023-02-19T04:10:25;98649.25;;;9.93;100.00
11108;BME280;5607;48.302;14.294;2023-02-19T04:13:19;98645.66;;;9.85;100.00
11108;BME280;5607;48.302;14.294;2023-02-19T04:16:10;98647.16;;;9.87;100.00
11108;BME280;5607;48.302;14.294;2023-02-19T04:19:02;98636.75;;;9.97;100.00
11108;BME280;5607;48.302;14.294;2023-02-19T04:21:51;98633.19;;;9.88;100.00
11108;BME280;5607;48.302;14.294;2023-02-19T04:24:50;98637.72;;;9.96;100.00
11108;BME280;5607;48.302;14.294;2023-02-19T04:27:37;98631.22;;;9.81;100.00
11108;BME280;5607;48.302;14.294;2023-02-19T04:30:24;98628.06;;;9.77;100.00
11108;BME280;5607;48.302;14.294;2023-02-19T04:33:11;98620.25;;;9.77;100.00
11108;BME280;5607;48.302;14.294;2023-02-19T04:35:58;98637.69;;;9.77;100.00
11108;BME280;5607;48.302;14.294;2023-02-19T04:38:44;98630.00;;;9.85;100.00
11108;BME280;5607;48.302;14.294;2023-02-19T04:41:31;98628.78;;;9.89;100.00
11108;BME280;5607;48.302;14.294;2023-02-19T04:44:17;98616.44;;;9.91;100.00
11108;BME280;5607;48.302;14.294;2023-02-19T04:47:04;98609.72;;;9.88;100.00
11108;BME280;5607;48.302;14.294;2023-02-19T04:49:51;98613.81;;;9.91;100.00
11108;BME280;5607;48.302;14.294;2023-02-19T04:52:37;98610.81;;;9.95;100.00
11108;BME280;5607;48.302;14.294;2023-02-19T04:55:24;98605.19;;;9.90;100.00
11108;BME280;5607;48.302;14.294;2023-02-19T04:58:11;98580.31;;;9.77;100.00
11108;BME280;5607;48.302;14.294;2023-02-19T05:00:57;98596.53;;;9.90;100.00
11108;BME280;5607;48.302;14.294;2023-02-19T05:03:44;98591.28;;;9.80;100.00
11108;BME280;5607;48.302;14.294;2023-02-19T05:06:31;98577.72;;;9.77;100.00
11108;BME280;5607;48.302;14.294;2023-02-19T05:09:17;98590.88;;;9.75;100.00
11108;BME280;5607;48.302;14.294;2023-02-19T05:12:04;98586.22;;;9.79;100.00
11108;BME280;5607;48.302;14.294;2023-02-19T05:14:51;98584.03;;;9.84;100.00
11108;BME280;5607;48.302;14.294;2023-02-19T05:17:37;98586.88;;;9.81;100.00
11108;BME280;5607;48.302;14.294;2023-02-19T05:20:24;98592.25;;;9.79;100.00
11108;BME280;5607;48.302;14.294;2023-02-19T05:23:10;98597.06;;;9.93;100.00
11108;BME280;5607;48.302;14.294;2023-02-19T05:25:57;98594.22;;;9.96;100.00
11108;BME280;5607;48.302;14.294;2023-02-19T05:28:44;98597.50;;;9.98;100.00
11108;BME280;5607;48.302;14.294;2023-02-19T05:31:31;98599.72;;;10.13;100.00
11108;BME280;5607;48.302;14.294;2023-02-19T05:34:19;98592.44;;;10.07;100.00
11108;BME280;5607;48.302;14.294;2023-02-19T05:37:05;98603.84;;;10.15;100.00
11108;BME280;5607;48.302;14.294;2023-02-19T05:39:52;98611.84;;;10.23;100.00
11108;BME280;5607;48.302;14.294;2023-02-19T05:42:38;98600.69;;;10.02;100.00
11108;BME280;5607;48.302;14.294;2023-02-19T05:45:25;98601.34;;;9.94;100.00
11108;BME280;5607;48.302;14.294;2023-02-19T05:48:12;98603.97;;;10.04;100.00
11108;BME280;5607;48.302;14.294;2023-02-19T05:51:07;98600.56;;;10.13;100.00
11108;BME280;5607;48.302;14.294;2023-02-19T05:53:55;98608.22;;;10.05;100.00
11108;BME280;5607;48.302;14.294;2023-02-19T05:56:41;98605.22;;;10.00;100.00
11108;BME280;5607;48.302;14.294;2023-02-19T05:59:28;98604.66;;;10.16;100.00
11108;BME280;5607;48.302;14.294;2023-02-19T06:02:15;98600.69;;;10.02;100.00
11108;BME280;5607;48.302;14.294;2023-02-19T06:05:02;98604.22;;;9.91;100.00
11108;BME280;5607;48.302;14.294;2023-02-19T06:07:48;98607.66;;;9.92;100.00
11108;BME280;5607;48.302;14.294;2023-02-19T06:10:36;98613.56;;;9.94;100.00
11108;BME280;5607;48.302;14.294;2023-02-19T06:13:23;98618.78;;;9.94;100.00
11108;BME280;5607;48.302;14.294;2023-02-19T06:16:11;98618.06;;;9.92;100.00
11108;BME280;5607;48.302;14.294;2023-02-19T06:18:58;98616.97;;;9.85;100.00
11108;BME280;5607;48.302;14.294;2023-02-19T06:21:49;98630.69;;;9.87;100.00
11108;BME280;5607;48.302;14.294;2023-02-19T06:24:36;98621.06;;;9.87;100.00
11108;BME280;5607;48.302;14.294;2023-02-19T06:27:23;98634.84;;;9.89;100.00
11108;BME280;5607;48.302;14.294;2023-02-19T06:30:10;98640.19;;;9.88;100.00
11108;BME280;5607;48.302;14.294;2023-02-19T06:32:57;98638.50;;;9.87;100.00
11108;BME280;5607;48.302;14.294;2023-02-19T06:35:43;98649.13;;;9.95;100.00
11108;BME280;5607;48.302;14.294;2023-02-19T06:38:30;98655.03;;;9.97;100.00
11108;BME280;5607;48.302;14.294;2023-02-19T06:41:17;98644.44;;;9.89;100.00
11108;BME280;5607;48.302;14.294;2023-02-19T06:44:03;98655.59;;;10.01;100.00
11108;BME280;5607;48.302;14.294;2023-02-19T06:46:53;98663.13;;;9.94;100.00
11108;BME280;5607;48.302;14.294;2023-02-19T06:49:40;98659.03;;;10.11;100.00
11108;BME280;5607;48.302;14.294;2023-02-19T06:52:27;98670.81;;;9.95;100.00
11108;BME280;5607;48.302;14.294;2023-02-19T06:55:13;98673.44;;;10.05;100.00
11108;BME280;5607;48.302;14.294;2023-02-19T06:58:00;98675.22;;;9.95;100.00
11108;BME280;5607;48.302;14.294;2023-02-19T07:00:46;98683.75;;;10.07;100.00
11108;BME280;5607;48.302;14.294;2023-02-19T07:03:33;98687.44;;;10.04;100.00
11108;BME280;5607;48.302;14.294;2023-02-19T07:06:21;98675.75;;;9.89;100.00
11108;BME280;5607;48.302;14.294;2023-02-19T07:09:09;98682.06;;;9.96;100.00
11108;BME280;5607;48.302;14.294;2023-02-19T07:11:55;98687.97;;;9.98;100.00
11108;BME280;5607;48.302;14.294;2023-02-19T07:14:42;98684.00;;;9.94;100.00
11108;BME280;5607;48.302;14.294;2023-02-19T07:17:29;98694.16;;;9.97;100.00
11108;BME280;5607;48.302;14.294;2023-02-19T07:20:15;98693.03;;;9.90;100.00
11108;BME280;5607;48.302;14.294;2023-02-19T07:23:02;98704.75;;;10.05;100.00
11108;BME280;5607;48.302;14.294;2023-02-19T07:25:48;98691.16;;;10.11;100.00
11108;BME280;5607;48.302;14.294;2023-02-19T07:28:35;98698.75;;;10.14;100.00
11108;BME280;5607;48.302;14.294;2023-02-19T07:31:22;98682.13;;;10.15;100.00
11108;BME280;5607;48.302;14.294;2023-02-19T07:34:09;98676.63;;;10.18;100.00
11108;BME280;5607;48.302;14.294;2023-02-19T07:36:56;98689.66;;;10.18;100.00
11108;BME280;5607;48.302;14.294;2023-02-19T07:39:42;98683.00;;;10.26;100.00
11108;BME280;5607;48.302;14.294;2023-02-19T07:42:30;98683.84;;;10.26;100.00
11108;BME280;5607;48.302;14.294;2023-02-19T07:45:16;98683.00;;;10.26;100.00
11108;BME280;5607;48.302;14.294;2023-02-19T07:48:03;98691.19;;;10.21;100.00
11108;BME280;5607;48.302;14.294;2023-02-19T07:50:58;98694.63;;;10.21;100.00
11108;BME280;5607;48.302;14.294;2023-02-19T07:53:45;98687.28;;;10.36;100.00
11108;BME280;5607;48.302;14.294;2023-02-19T07:56:32;98696.06;;;10.35;100.00
11108;BME280;5607;48.302;14.294;2023-02-19T07:59:18;98700.09;;;10.09;100.00
11108;BME280;5607;48.302;14.294;2023-02-19T08:02:17;98709.13;;;10.05;100.00
11108;BME280;5607;48.302;14.294;2023-02-19T08:05:22;98705.78;;;9.93;100.00
11108;BME280;5607;48.302;14.294;2023-02-19T08:08:11;98711.84;;;9.93;100.00
11108;BME280;5607;48.302;14.294;2023-02-19T08:11:03;98725.28;;;9.89;100.00
11108;BME280;5607;48.302;14.294;2023-02-19T08:14:08;98723.38;;;9.91;100.00
11108;BME280;5607;48.302;14.294;2023-02-19T08:16:55;98715.03;;;9.97;100.00
11108;BME280;5607;48.302;14.294;2023-02-19T08:19:41;98741.84;;;10.18;100.00
11108;BME280;5607;48.302;14.294;2023-02-19T08:22:28;98729.66;;;10.19;100.00
11108;BME280;5607;48.302;14.294;2023-02-19T08:25:14;98729.47;;;10.01;100.00
11108;BME280;5607;48.302;14.294;2023-02-19T08:28:01;98737.44;;;10.09;100.00
11108;BME280;5607;48.302;14.294;2023-02-19T08:30:48;98744.00;;;9.94;100.00
11108;BME280;5607;48.302;14.294;2023-02-19T08:33:34;98740.34;;;9.76;100.00
11108;BME280;5607;48.302;14.294;2023-02-19T08:36:21;98749.44;;;9.60;100.00
11108;BME280;5607;48.302;14.294;2023-02-19T08:39:08;98758.97;;;9.50;100.00
11108;BME280;5607;48.302;14.294;2023-02-19T08:41:55;98750.13;;;9.62;100.00
11108;BME280;5607;48.302;14.294;2023-02-19T08:44:42;98755.69;;;9.69;100.00
11108;BME280;5607;48.302;14.294;2023-02-19T08:47:28;98752.81;;;9.51;100.00
11108;BME280;5607;48.302;14.294;2023-02-19T08:50:15;98755.09;;;9.65;100.00
11108;BME280;5607;48.302;14.294;2023-02-19T08:53:03;98743.34;;;9.50;100.00
11108;BME280;5607;48.302;14.294;2023-02-19T08:55:50;98735.63;;;9.69;100.00
11108;BME280;5607;48.302;14.294;2023-02-19T08:58:37;98734.16;;;9.77;100.00
11108;BME280;5607;48.302;14.294;2023-02-19T09:01:24;98726.81;;;9.91;100.00
11108;BME280;5607;48.302;14.294;2023-02-19T09:04:11;98738.94;;;10.02;100.00
11108;BME280;5607;48.302;14.294;2023-02-19T09:06:58;98739.63;;;10.04;100.00
11108;BME280;5607;48.302;14.294;2023-02-19T09:09:45;98736.06;;;10.05;100.00
11108;BME280;5607;48.302;14.294;2023-02-19T09:12:31;98742.53;;;10.11;100.00
11108;BME280;5607;48.302;14.294;2023-02-19T09:15:18;98744.34;;;10.20;100.00
11108;BME280;5607;48.302;14.294;2023-02-19T09:18:05;98745.72;;;10.14;100.00
11108;BME280;5607;48.302;14.294;2023-02-19T09:20:52;98750.72;;;10.37;100.00
11108;BME280;5607;48.302;14.294;2023-02-19T09:23:38;98759.41;;;10.37;100.00
11108;BME280;5607;48.302;14.294;2023-02-19T09:26:25;98751.16;;;10.42;100.00
11108;BME280;5607;48.302;14.294;2023-02-19T09:29:11;98756.56;;;10.50;100.00
11108;BME280;5607;48.302;14.294;2023-02-19T09:31:59;98762.19;;;10.55;100.00
11108;BME280;5607;48.302;14.294;2023-02-19T09:34:45;98772.22;;;10.60;100.00
11108;BME280;5607;48.302;14.294;2023-02-19T09:37:32;98778.09;;;10.33;100.00
11108;BME280;5607;48.302;14.294;2023-02-19T09:40:19;98750.78;;;10.46;100.00
11108;BME280;5607;48.302;14.294;2023-02-19T09:43:08;98769.63;;;10.50;100.00
11108;BME280;5607;48.302;14.294;2023-02-19T09:46:08;98784.34;;;10.70;100.00
11108;BME280;5607;48.302;14.294;2023-02-19T09:49:05;98773.22;;;10.78;100.00
11108;BME280;5607;48.302;14.294;2023-02-19T09:58:46;98790.44;;;11.19;100.00
11108;BME280;5607;48.302;14.294;2023-02-19T10:01:36;98789.88;;;11.16;100.00
11108;BME280;5607;48.302;14.294;2023-02-19T10:04:24;98794.28;;;11.35;100.00
11108;BME280;5607;48.302;14.294;2023-02-19T10:07:12;98778.06;;;11.02;100.00
11108;BME280;5607;48.302;14.294;2023-02-19T10:10:09;98799.66;;;11.04;100.00
11108;BME280;5607;48.302;14.294;2023-02-19T10:13:23;98814.53;;;11.13;100.00
11108;BME280;5607;48.302;14.294;2023-02-19T10:16:19;98808.06;;;11.27;100.00
11108;BME280;5607;48.302;14.294;2023-02-19T10:19:12;98806.50;;;11.53;100.00
11108;BME280;5607;48.302;14.294;2023-02-19T10:21:59;98815.84;;;11.75;100.00
11108;BME280;5607;48.302;14.294;2023-02-19T10:24:51;98813.69;;;11.51;100.00
11108;BME280;5607;48.302;14.294;2023-02-19T10:27:38;98805.63;;;11.92;100.00
11108;BME280;5607;48.302;14.294;2023-02-19T10:30:29;98818.72;;;11.92;100.00
11108;BME280;5607;48.302;14.294;2023-02-19T10:33:16;98799.19;;;11.76;100.00
11108;BME280;5607;48.302;14.294;2023-02-19T10:36:05;98820.75;;;12.07;100.00
11108;BME280;5607;48.302;14.294;2023-02-19T10:38:52;98821.09;;;12.32;100.00
11108;BME280;5607;48.302;14.294;2023-02-19T10:41:40;98807.56;;;11.99;100.00
11108;BME280;5607;48.302;14.294;2023-02-19T10:44:31;98817.06;;;12.37;100.00
11108;BME280;5607;48.302;14.294;2023-02-19T10:47:22;98811.41;;;12.05;100.00
11108;BME280;5607;48.302;14.294;2023-02-19T10:50:25;98829.84;;;12.13;100.00
11108;BME280;5607;48.302;14.294;2023-02-19T10:53:38;98830.91;;;12.20;100.00
11108;BME280;5607;48.302;14.294;2023-02-19T10:56:27;98809.63;;;12.05;100.00
11108;BME280;5607;48.302;14.294;2023-02-19T10:59:37;98825.06;;;11.99;100.00
11108;BME280;5607;48.302;14.294;2023-02-19T11:02:24;98837.72;;;12.03;100.00
11108;BME280;5607;48.302;14.294;2023-02-19T11:08:00;98839.09;;;11.98;100.00
11108;BME280;5607;48.302;14.294;2023-02-19T11:10:47;98838.69;;;11.73;100.00
11108;BME280;5607;48.302;14.294;2023-02-19T11:13:34;98833.78;;;11.51;100.00
11108;BME280;5607;48.302;14.294;2023-02-19T11:16:45;98835.56;;;11.60;100.00
11108;BME280;5607;48.302;14.294;2023-02-19T11:19:43;98846.16;;;11.88;100.00
11108;BME280;5607;48.302;14.294;2023-02-19T11:22:32;98834.31;;;11.83;100.00
11108;BME280;5607;48.302;14.294;2023-02-19T11:25:20;98831.41;;;11.67;100.00
11108;BME280;5607;48.302;14.294;2023-02-19T11:31:30;98831.69;;;11.93;100.00
11108;BME280;5607;48.302;14.294;2023-02-19T11:37:09;98822.34;;;11.81;100.00
11108;BME280;5607;48.302;14.294;2023-02-19T11:39:56;98831.31;;;11.49;100.00
11108;BME280;5607;48.302;14.294;2023-02-19T11:43:16;98840.38;;;11.84;100.00
11108;BME280;5607;48.302;14.294;2023-02-19T11:56:15;98845.47;;;11.27;100.00
11108;BME280;5607;48.302;14.294;2023-02-19T12:09:01;98842.03;;;11.27;100.00
11108;BME280;5607;48.302;14.294;2023-02-19T12:18:12;98826.50;;;11.25;100.00
11108;BME280;5607;48.302;14.294;2023-02-19T12:21:19;98829.63;;;11.48;100.00
11108;BME280;5607;48.302;14.294;2023-02-19T12:27:39;98812.03;;;11.41;100.00
11108;BME280;5607;48.302;14.294;2023-02-19T12:31:02;98816.56;;;11.87;100.00
11108;BME280;5607;48.302;14.294;2023-02-19T12:34:15;98819.63;;;12.10;100.00
11108;BME280;5607;48.302;14.294;2023-02-19T12:43:20;98817.50;;;12.60;100.00
11108;BME280;5607;48.302;14.294;2023-02-19T12:46:33;98816.88;;;12.76;100.00
11108;BME280;5607;48.302;14.294;2023-02-19T12:49:29;98825.66;;;12.57;100.00
11108;BME280;5607;48.302;14.294;2023-02-19T12:52:27;98828.13;;;12.31;100.00
11108;BME280;5607;48.302;14.294;2023-02-19T12:55:33;98835.66;;;12.44;100.00
11108;BME280;5607;48.302;14.294;2023-02-19T12:58:39;98827.81;;;11.97;100.00
11108;BME280;5607;48.302;14.294;2023-02-19T13:01:32;98831.56;;;11.85;100.00
11108;BME280;5607;48.302;14.294;2023-02-19T13:04:49;98843.53;;;11.58;100.00
11108;BME280;5607;48.302;14.294;2023-02-19T13:07:44;98838.84;;;11.72;100.00
11108;BME280;5607;48.302;14.294;2023-02-19T13:11:05;98861.16;;;11.47;100.00
11108;BME280;5607;48.302;14.294;2023-02-19T13:14:14;98850.03;;;11.45;100.00
11108;BME280;5607;48.302;14.294;2023-02-19T13:20:36;98848.66;;;11.50;100.00
11108;BME280;5607;48.302;14.294;2023-02-19T13:23:28;98864.47;;;11.68;100.00
11108;BME280;5607;48.302;14.294;2023-02-19T13:33:05;98859.78;;;11.43;100.00
11108;BME280;5607;48.302;14.294;2023-02-19T13:36:23;98857.03;;;11.35;100.00
11108;BME280;5607;48.302;14.294;2023-02-19T13:39:13;98859.94;;;11.51;100.00
11108;BME280;5607;48.302;14.294;2023-02-19T13:42:01;98862.25;;;11.64;100.00
11108;BME280;5607;48.302;14.294;2023-02-19T13:44:47;98862.41;;;11.62;100.00
11108;BME280;5607;48.302;14.294;2023-02-19T13:47:58;98858.81;;;11.34;100.00
11108;BME280;5607;48.302;14.294;2023-02-19T13:50:45;98878.78;;;11.54;100.00
11108;BME280;5607;48.302;14.294;2023-02-19T13:59:26;98873.94;;;11.98;99.30
11108;BME280;5607;48.302;14.294;2023-02-19T14:05:10;98878.66;;;11.37;99.75
11108;BME280;5607;48.302;14.294;2023-02-19T14:07:56;98876.97;;;11.36;100.00
11108;BME280;5607;48.302;14.294;2023-02-19T14:10:56;98876.44;;;11.32;100.00
11108;BME280;5607;48.302;14.294;2023-02-19T14:19:44;98883.88;;;11.75;99.42
11108;BME280;5607;48.302;14.294;2023-02-19T14:25:45;98875.06;;;11.67;98.32
11108;BME280;5607;48.302;14.294;2023-02-19T14:28:44;98892.66;;;11.55;98.07
11108;BME280;5607;48.302;14.294;2023-02-19T14:31:35;98886.63;;;11.54;96.75
11108;BME280;5607;48.302;14.294;2023-02-19T14:34:22;98885.66;;;11.36;95.57
11108;BME280;5607;48.302;14.294;2023-02-19T14:37:19;98888.28;;;11.46;95.57
11108;BME280;5607;48.302;14.294;2023-02-19T14:40:08;98910.41;;;11.42;92.97
11108;BME280;5607;48.302;14.294;2023-02-19T14:42:58;98910.41;;;11.22;95.11
11108;BME280;5607;48.302;14.294;2023-02-19T14:45:55;98910.81;;;11.27;95.15
11108;BME280;5607;48.302;14.294;2023-02-19T14:48:46;98900.94;;;11.41;94.88
11108;BME280;5607;48.302;14.294;2023-02-19T14:51:41;98909.34;;;11.54;94.77
11108;BME280;5607;48.302;14.294;2023-02-19T14:57:40;98900.78;;;11.42;95.03
11108;BME280;5607;48.302;14.294;2023-02-19T15:00:40;98908.25;;;11.37;96.07
11108;BME280;5607;48.302;14.294;2023-02-19T15:03:30;98904.38;;;11.41;95.44
11108;BME280;5607;48.302;14.294;2023-02-19T15:06:17;98912.66;;;11.37;95.75
11108;BME280;5607;48.302;14.294;2023-02-19T15:09:05;98915.66;;;11.32;96.96
11108;BME280;5607;48.302;14.294;2023-02-19T15:11:53;98920.22;;;11.49;96.19
11108;BME280;5607;48.302;14.294;2023-02-19T15:14:40;98914.00;;;11.60;96.05
11108;BME280;5607;48.302;14.294;2023-02-19T15:17:34;98898.31;;;11.31;94.66
11108;BME280;5607;48.302;14.294;2023-02-19T15:20:25;98915.50;;;11.24;95.95
11108;BME280;5607;48.302;14.294;2023-02-19T15:23:23;98913.72;;;11.34;96.14
11108;BME280;5607;48.302;14.294;2023-02-19T15:26:20;98915.22;;;11.27;96.56
11108;BME280;5607;48.302;14.294;2023-02-19T15:29:13;98912.28;;;11.01;97.06
11108;BME280;5607;48.302;14.294;2023-02-19T15:32:00;98921.63;;;11.03;97.85
11108;BME280;5607;48.302;14.294;2023-02-19T15:34:57;98932.66;;;11.17;98.53
11108;BME280;5607;48.302;14.294;2023-02-19T15:37:44;98934.47;;;11.16;97.75
11108;BME280;5607;48.302;14.294;2023-02-19T15:40:31;98957.84;;;11.18;97.27
11108;BME280;5607;48.302;14.294;2023-02-19T15:43:30;98959.94;;;10.84;100.00
11108;BME280;5607;48.302;14.294;2023-02-19T15:46:22;98979.25;;;10.41;100.00
11108;BME280;5607;48.302;14.294;2023-02-19T15:49:18;98969.06;;;10.06;100.00
11108;BME280;5607;48.302;14.294;2023-02-19T15:52:16;98994.53;;;9.81;100.00
11108;BME280;5607;48.302;14.294;2023-02-19T15:55:17;98997.31;;;9.68;100.00
11108;BME280;5607;48.302;14.294;2023-02-19T16:01:03;98985.66;;;9.40;100.00
11108;BME280;5607;48.302;14.294;2023-02-19T16:03:51;98985.56;;;9.31;100.00
11108;BME280;5607;48.302;14.294;2023-02-19T16:06:56;99008.31;;;9.29;100.00
11108;BME280;5607;48.302;14.294;2023-02-19T16:09:43;98981.09;;;9.22;100.00
11108;BME280;5607;48.302;14.294;2023-02-19T16:12:30;98983.22;;;9.28;100.00
11108;BME280;5607;48.302;14.294;2023-02-19T16:15:18;98984.84;;;9.29;100.00
11108;BME280;5607;48.302;14.294;2023-02-19T16:18:05;98991.59;;;9.31;100.00
11108;BME280;5607;48.302;14.294;2023-02-19T16:20:53;98996.81;;;9.31;100.00
11108;BME280;5607;48.302;14.294;2023-02-19T16:23:43;99005.56;;;9.30;100.00
11108;BME280;5607;48.302;14.294;2023-02-19T16:26:42;99004.28;;;9.36;100.00
11108;BME280;5607;48.302;14.294;2023-02-19T16:29:31;99002.97;;;9.41;100.00
11108;BME280;5607;48.302;14.294;2023-02-19T16:32:18;99009.22;;;9.50;100.00
11108;BME280;5607;48.302;14.294;2023-02-19T16:35:38;99001.44;;;9.39;100.00
11108;BME280;5607;48.302;14.294;2023-02-19T16:38:25;99017.97;;;9.49;100.00
11108;BME280;5607;48.302;14.294;2023-02-19T16:41:12;99019.63;;;9.50;100.00
11108;BME280;5607;48.302;14.294;2023-02-19T16:43:58;99021.88;;;9.55;100.00
11108;BME280;5607;48.302;14.294;2023-02-19T16:46:57;99033.53;;;9.51;100.00